Terminal Aerodrome Forecast
Issued by NWS

Home | Current Version | Previous Version | Text Only | Print | Product List | Glossary On
Versions: 1 2 3 4 5 6 7 8 9 10 11 12 13 14 15 16 17 18 19 20
000
FTUS41 KCLE 242300
TAFFDY
TAF
KFDY 242324Z 2500/2524 10010KT P6SM OVC100
     FM251000 13012KT 6SM -RA OVC035
     FM251200 14012G20KT 3SM -RA OVC025
     FM251500 23015G25KT 3SM -RA OVC015
     FM251800 28015G30KT P6SM BKN030=

USA.gov is the U.S. government's official web portal to all federal, state and local government web resources and services.